createdAt,value
2018-03-06T00:01:13.850Z,227.87
2018-03-06T00:03:41.439Z,228.90
2018-03-06T00:06:09.097Z,335.77
2018-03-06T00:08:36.703Z,322.50
2018-03-06T00:11:04.337Z,256.13
2018-03-06T00:13:31.994Z,241.63
2018-03-06T00:15:59.586Z,213.10
2018-03-06T00:18:27.178Z,246.57
2018-03-06T00:20:54.806Z,233.70
2018-03-06T00:23:22.401Z,306.17
2018-03-06T00:25:50.014Z,241.57
2018-03-06T00:28:17.650Z,360.97
2018-03-06T00:30:45.254Z,210.80
2018-03-06T00:33:12.827Z,209.43
2018-03-06T00:35:40.452Z,229.37
2018-03-06T00:38:08.055Z,206.47
2018-03-06T00:40:35.640Z,238.67
2018-03-06T00:43:03.435Z,206.23
2018-03-06T00:45:31.022Z,236.20
2018-03-06T00:47:58.636Z,209.27
2018-03-06T00:50:26.312Z,228.67
2018-03-06T00:52:53.874Z,211.40
2018-03-06T00:55:21.504Z,262.13
2018-03-06T00:57:49.131Z,310.23
2018-03-06T01:00:16.738Z,301.47
2018-03-06T01:02:44.335Z,295.37
2018-03-06T01:05:11.994Z,324.33
2018-03-06T01:07:39.583Z,247.70
2018-03-06T01:10:07.165Z,251.10
2018-03-06T01:12:34.802Z,275.60
2018-03-06T01:15:02.451Z,263.37
2018-03-06T01:17:30.065Z,263.07
2018-03-06T01:19:57.702Z,274.67
2018-03-06T01:22:25.291Z,274.87
2018-03-06T01:24:52.895Z,261.13
2018-03-06T01:27:20.557Z,232.50
2018-03-06T01:29:48.163Z,221.77
2018-03-06T01:32:15.734Z,230.37
2018-03-06T01:34:43.368Z,243.57
2018-03-06T01:37:11.000Z,227.53
2018-03-06T01:39:38.579Z,219.37
2018-03-06T01:42:06.217Z,227.30
2018-03-06T01:44:33.810Z,197.63
2018-03-06T01:47:01.400Z,223.60
2018-03-06T01:49:29.019Z,226.93
2018-03-06T01:51:58.363Z,411.73
2018-03-06T01:54:25.973Z,318.93
2018-03-06T01:56:53.658Z,193.40
2018-03-06T01:59:21.247Z,196.73
2018-03-06T02:01:48.844Z,186.97
2018-03-06T02:04:16.493Z,171.33
2018-03-06T02:06:44.082Z,190.43
2018-03-06T02:09:11.679Z,170.50
2018-03-06T02:11:39.318Z,155.27
2018-03-06T02:14:06.928Z,138.57
2018-03-06T02:16:34.522Z,148.83
2018-03-06T02:19:02.162Z,155.80
2018-03-06T02:21:29.766Z,156.23
2018-03-06T02:23:57.363Z,143.80
2018-03-06T02:26:25.030Z,142.23
2018-03-06T02:28:53.214Z,137.87
2018-03-06T02:31:20.807Z,146.80
2018-03-06T02:33:48.457Z,127.30
2018-03-06T02:36:16.124Z,136.32
2018-03-06T02:38:43.734Z,115.23
2018-03-06T02:41:11.361Z,144.43
2018-03-06T02:43:38.948Z,139.70
2018-03-06T02:46:12.264Z,135.87
2018-03-06T02:48:39.878Z,142.17
2018-03-06T02:51:07.499Z,118.13
2018-03-06T02:53:35.144Z,127.45
2018-03-06T02:56:02.730Z,120.30
2018-03-06T02:58:30.330Z,108.93
2018-03-06T03:00:57.972Z,100.40
2018-03-06T03:03:25.558Z,107.00
2018-03-06T03:05:53.213Z,124.17
2018-03-06T03:08:20.847Z,99.30
2018-03-06T03:10:48.452Z,102.67
2018-03-06T03:13:16.056Z,105.30
2018-03-06T03:15:43.688Z,96.53
2018-03-06T03:18:11.281Z,101.50
2018-03-06T03:20:38.881Z,99.97
2018-03-06T03:23:06.524Z,111.43
2018-03-06T03:25:34.141Z,128.60
2018-03-06T03:28:01.738Z,95.83
2018-03-06T03:30:29.366Z,118.07
2018-03-06T03:32:56.966Z,114.60
2018-03-06T03:35:24.558Z,120.90
2018-03-06T03:37:52.185Z,110.27
2018-03-06T03:40:19.811Z,130.33
2018-03-06T03:42:47.395Z,194.50
2018-03-06T03:45:15.025Z,153.30
2018-03-06T03:47:42.639Z,159.30
2018-03-06T03:50:10.243Z,152.93
2018-03-06T03:52:37.869Z,204.05
2018-03-06T03:55:05.468Z,165.23
2018-03-06T03:57:33.102Z,141.77
2018-03-06T04:00:00.723Z,128.83
2018-03-06T04:02:28.348Z,135.57
2018-03-06T04:04:55.944Z,111.77
2018-03-06T04:07:23.566Z,120.57
2018-03-06T04:09:51.151Z,135.10
2018-03-06T04:12:18.740Z,168.30
2018-03-06T04:14:46.386Z,197.03
2018-03-06T04:17:14.007Z,132.67
2018-03-06T04:19:41.648Z,136.83
2018-03-06T04:22:09.287Z,163.13
2018-03-06T04:24:36.886Z,154.27
2018-03-06T04:27:04.498Z,114.80
2018-03-06T04:29:32.162Z,115.93
2018-03-06T04:31:59.751Z,118.03
2018-03-06T04:34:27.331Z,142.97
2018-03-06T04:36:54.970Z,190.73
2018-03-06T04:39:22.575Z,112.30
2018-03-06T04:41:50.154Z,116.03
2018-03-06T04:44:17.784Z,107.13
2018-03-06T04:46:45.377Z,99.93
2018-03-06T04:49:13.010Z,119.93
2018-03-06T04:51:40.635Z,117.37
2018-03-06T04:54:08.233Z,101.13
2018-03-06T04:56:35.825Z,113.53
2018-03-06T04:59:03.492Z,115.90
2018-03-06T05:01:31.142Z,117.83
2018-03-06T05:03:58.691Z,155.87
2018-03-06T05:06:26.347Z,112.83
2018-03-06T05:08:53.941Z,119.10
2018-03-06T05:11:21.558Z,126.97
2018-03-06T05:13:49.207Z,114.03
2018-03-06T05:16:16.854Z,107.07
2018-03-06T05:18:44.446Z,104.07
2018-03-06T05:21:12.100Z,115.23
2018-03-06T05:23:39.700Z,108.20
2018-03-06T05:26:07.289Z,124.57
2018-03-06T05:28:34.926Z,122.33
2018-03-06T05:31:02.527Z,131.47
2018-03-06T05:33:30.132Z,145.17
2018-03-06T05:35:57.741Z,156.23
2018-03-06T05:38:25.336Z,151.40
2018-03-06T05:40:52.935Z,145.70
2018-03-06T05:43:20.604Z,131.90
2018-03-06T05:45:48.258Z,147.23
2018-03-06T05:48:15.845Z,126.90
2018-03-06T05:50:43.509Z,161.40
2018-03-06T05:53:11.098Z,156.97
2018-03-06T05:55:38.736Z,170.03
2018-03-06T05:58:06.343Z,169.97
2018-03-06T06:00:34.059Z,155.40
2018-03-06T06:03:01.718Z,171.33
2018-03-06T06:05:29.324Z,174.50
2018-03-06T06:07:56.923Z,166.63
2018-03-06T06:10:24.568Z,158.67
2018-03-06T06:12:52.167Z,166.03
2018-03-06T06:15:19.774Z,165.20
2018-03-06T06:17:47.383Z,149.07
2018-03-06T06:20:14.965Z,128.00
2018-03-06T06:22:42.541Z,156.10
2018-03-06T06:25:10.153Z,162.43
2018-03-06T06:27:37.992Z,145.97
2018-03-06T06:30:05.582Z,146.67
2018-03-06T06:32:33.192Z,116.23
2018-03-06T06:35:00.796Z,137.07
2018-03-06T06:37:28.372Z,123.20
2018-03-06T06:39:55.982Z,129.90
2018-03-06T06:42:23.563Z,135.10
2018-03-06T06:44:51.185Z,132.80
2018-03-06T06:47:18.791Z,123.57
2018-03-06T06:49:46.400Z,115.60
2018-03-06T06:52:13.971Z,104.60
2018-03-06T06:54:41.586Z,111.80
2018-03-06T06:57:09.158Z,126.50
2018-03-06T06:59:36.773Z,107.57
2018-03-06T07:02:04.476Z,105.57
2018-03-06T07:04:32.056Z,118.60
2018-03-06T07:06:59.635Z,101.70
2018-03-06T07:09:27.239Z,111.93
2018-03-06T07:11:54.842Z,136.20
2018-03-06T07:14:22.424Z,125.13
2018-03-06T07:16:50.036Z,114.53
2018-03-06T07:19:17.595Z,99.90
2018-03-06T07:21:45.193Z,114.93
2018-03-06T07:24:12.807Z,102.33
2018-03-06T07:26:40.488Z,102.87
2018-03-06T07:29:08.062Z,115.93
2018-03-06T07:31:35.666Z,103.60
2018-03-06T07:34:03.234Z,112.03
2018-03-06T07:36:30.888Z,109.07
2018-03-06T07:38:58.498Z,121.17
2018-03-06T07:41:26.067Z,113.80
2018-03-06T07:43:53.634Z,124.77
2018-03-06T07:46:21.261Z,220.93
2018-03-06T07:48:48.989Z,126.03
2018-03-06T07:51:16.569Z,116.47
2018-03-06T07:53:44.173Z,126.32
2018-03-06T07:56:11.756Z,136.20
2018-03-06T07:58:39.380Z,129.97
2018-03-06T08:01:06.997Z,109.00
2018-03-06T08:03:34.584Z,113.87
2018-03-06T08:06:02.154Z,126.13
2018-03-06T08:08:29.770Z,112.00
2018-03-06T08:10:57.334Z,108.30
2018-03-06T08:13:24.899Z,109.43
2018-03-06T08:15:52.501Z,107.50
2018-03-06T08:18:20.059Z,123.43
2018-03-06T08:20:47.626Z,111.50
2018-03-06T08:23:15.228Z,121.20
2018-03-06T08:25:42.796Z,121.37
2018-03-06T08:28:10.407Z,115.23
2018-03-06T08:30:38.019Z,95.10
2018-03-06T08:33:06.491Z,97.83
2018-03-06T08:35:34.064Z,110.83
2018-03-06T08:38:01.676Z,106.87
2018-03-06T08:40:29.243Z,114.27
2018-03-06T08:42:56.815Z,107.60
2018-03-06T08:45:24.431Z,131.73
2018-03-06T08:47:52.004Z,100.47
2018-03-06T08:50:19.584Z,117.13
2018-03-06T08:52:47.203Z,128.60
2018-03-06T08:55:14.775Z,104.10
2018-03-06T08:57:42.391Z,122.03
2018-03-06T09:00:09.997Z,108.37
2018-03-06T09:02:37.578Z,101.13
2018-03-06T09:05:05.153Z,96.67
2018-03-06T09:07:32.772Z,118.43
2018-03-06T09:10:00.339Z,96.10
2018-03-06T09:12:27.907Z,96.70
2018-03-06T09:14:55.528Z,96.77
2018-03-06T09:17:23.153Z,100.23
2018-03-06T09:19:50.697Z,79.97
2018-03-06T09:22:18.293Z,96.17
2018-03-06T09:24:45.859Z,101.23
2018-03-06T09:27:13.436Z,113.30
2018-03-06T09:29:41.051Z,96.60
2018-03-06T09:32:08.628Z,101.00
2018-03-06T09:34:36.197Z,86.83
2018-03-06T09:37:03.812Z,86.70
2018-03-06T09:39:31.382Z,89.57
2018-03-06T09:41:58.946Z,97.20
2018-03-06T09:44:26.565Z,95.10
2018-03-06T09:46:54.136Z,77.70
2018-03-06T09:49:21.709Z,86.90
2018-03-06T09:51:49.311Z,85.40
2018-03-06T09:54:16.883Z,85.13
2018-03-06T09:56:44.451Z,83.90
2018-03-06T09:59:12.060Z,79.53
2018-03-06T10:01:39.627Z,80.73
2018-03-06T10:04:07.201Z,64.47
2018-03-06T10:06:34.831Z,73.47
2018-03-06T10:09:02.416Z,85.73
2018-03-06T10:11:30.144Z,54.23
2018-03-06T10:13:57.746Z,67.50
2018-03-06T10:16:25.352Z,68.40
2018-03-06T10:18:52.908Z,62.07
2018-03-06T10:21:20.471Z,61.60
2018-03-06T10:23:48.089Z,71.83
2018-03-06T10:26:15.646Z,71.80
2018-03-06T10:28:43.211Z,69.60
2018-03-06T10:31:10.816Z,56.03
2018-03-06T10:33:38.455Z,60.80
2018-03-06T10:36:06.046Z,54.03
2018-03-06T10:38:33.653Z,52.77
2018-03-06T10:41:01.229Z,57.07
2018-03-06T10:43:28.808Z,68.23
2018-03-06T10:45:56.409Z,63.97
2018-03-06T10:48:23.974Z,64.47
2018-03-06T10:50:51.530Z,64.50
2018-03-06T10:53:19.147Z,63.53
2018-03-06T10:55:46.715Z,51.83
2018-03-06T10:58:14.285Z,49.93
2018-03-06T11:00:47.814Z,43.97
2018-03-06T11:03:29.844Z,38.73
2018-03-06T11:05:57.448Z,37.50
2018-03-06T11:08:25.020Z,38.10
2018-03-06T11:10:52.602Z,57.50
2018-03-06T11:13:20.308Z,46.53
2018-03-06T11:15:47.891Z,65.00
2018-03-06T11:18:15.474Z,78.87
2018-03-06T11:20:43.104Z,56.60
2018-03-06T11:23:10.681Z,76.63
2018-03-06T11:25:38.255Z,62.13
2018-03-06T11:28:05.870Z,54.63
2018-03-06T11:30:33.442Z,55.47
2018-03-06T11:33:01.020Z,55.27
2018-03-06T11:35:28.647Z,59.17
2018-03-06T11:37:56.203Z,53.37
2018-03-06T11:40:23.770Z,56.17
2018-03-06T11:42:51.377Z,60.67
2018-03-06T11:45:18.949Z,58.73
2018-03-06T11:47:46.524Z,56.40
2018-03-06T11:50:14.128Z,53.47
2018-03-06T11:52:41.710Z,49.53
2018-03-06T11:55:09.280Z,53.23
2018-03-06T11:57:37.465Z,55.83
2018-03-06T12:00:05.152Z,52.20
2018-03-06T12:02:32.724Z,54.03
2018-03-06T12:05:00.335Z,65.90
2018-03-06T12:07:27.915Z,52.73
2018-03-06T12:09:55.586Z,56.50
2018-03-06T12:12:23.218Z,47.07
2018-03-06T12:14:50.795Z,54.33
2018-03-06T12:17:18.531Z,60.73
2018-03-06T12:19:46.128Z,60.87
2018-03-06T12:22:13.747Z,62.80
2018-03-06T12:24:41.320Z,56.27
2018-03-06T12:27:08.909Z,89.17
2018-03-06T12:29:36.473Z,66.67
2018-03-06T12:32:04.031Z,69.93
2018-03-06T12:34:31.630Z,66.90
2018-03-06T12:36:59.188Z,67.90
2018-03-06T12:39:26.752Z,58.63
2018-03-06T12:41:54.362Z,56.17
2018-03-06T12:44:21.941Z,57.53
2018-03-06T12:46:49.531Z,48.57
2018-03-06T12:49:17.201Z,58.80
2018-03-06T12:51:44.774Z,55.07
2018-03-06T12:54:12.344Z,64.30
2018-03-06T12:56:40.102Z,61.23
2018-03-06T12:59:07.672Z,66.73
2018-03-06T13:01:35.306Z,61.90
2018-03-06T13:04:04.064Z,60.87
2018-03-06T13:06:31.634Z,54.67
2018-03-06T13:08:59.208Z,56.73
2018-03-06T13:11:26.998Z,59.23
2018-03-06T13:13:54.566Z,56.13
2018-03-06T13:16:22.130Z,60.13
2018-03-06T13:18:49.772Z,51.63
2018-03-06T13:21:18.054Z,49.33
2018-03-06T13:23:45.628Z,49.80
2018-03-06T13:26:13.249Z,45.83
2018-03-06T13:28:42.711Z,51.97
2018-03-06T13:31:10.299Z,53.83
2018-03-06T13:33:39.669Z,48.07
2018-03-06T13:36:08.138Z,49.10
2018-03-06T13:38:36.462Z,52.30
2018-03-06T13:41:04.186Z,58.23
2018-03-06T13:43:31.745Z,85.10
2018-03-06T13:45:59.309Z,65.60
2018-03-06T13:48:26.940Z,62.33
2018-03-06T13:50:54.525Z,60.50
2018-03-06T13:53:22.092Z,61.00
2018-03-06T13:55:49.709Z,63.50
2018-03-06T13:58:17.273Z,63.30
2018-03-06T14:00:44.875Z,67.23
2018-03-06T14:03:12.475Z,74.00
2018-03-06T14:05:40.052Z,73.17
2018-03-06T14:08:07.626Z,80.90
2018-03-06T14:10:35.236Z,85.10
2018-03-06T14:13:02.798Z,74.63
2018-03-06T14:15:30.428Z,72.83
2018-03-06T14:17:58.022Z,73.40
2018-03-06T14:20:25.594Z,87.43
2018-03-06T14:22:53.168Z,73.43
2018-03-06T14:25:20.760Z,75.67
2018-03-06T14:27:48.328Z,86.20
2018-03-06T14:30:15.892Z,74.73
2018-03-06T14:32:43.608Z,81.63
2018-03-06T14:35:11.180Z,75.40
2018-03-06T14:37:38.755Z,82.20
2018-03-06T14:40:06.373Z,105.87
2018-03-06T14:42:33.940Z,77.83
2018-03-06T14:45:01.512Z,86.67
2018-03-06T14:47:29.129Z,81.90
2018-03-06T14:49:56.706Z,94.53
2018-03-06T14:52:24.288Z,85.23
2018-03-06T14:54:52.088Z,74.50
2018-03-06T14:57:19.707Z,100.73
2018-03-06T14:59:47.305Z,84.10
2018-03-06T15:02:14.926Z,117.70
2018-03-06T15:04:42.500Z,95.50
2018-03-06T15:07:10.062Z,77.63
2018-03-06T15:09:37.677Z,91.67
2018-03-06T15:12:05.239Z,93.77
2018-03-06T15:14:32.826Z,80.23
2018-03-06T15:17:00.631Z,69.83
2018-03-06T15:19:28.192Z,91.93
2018-03-06T15:21:55.758Z,83.60
2018-03-06T15:24:23.346Z,75.57
2018-03-06T15:26:50.915Z,81.23
2018-03-06T15:29:18.470Z,80.77
2018-03-06T15:31:46.082Z,103.27
2018-03-06T15:34:13.688Z,132.30
2018-03-06T15:36:41.259Z,108.80
2018-03-06T15:39:08.947Z,171.80
2018-03-06T15:41:36.521Z,95.93
2018-03-06T15:44:04.084Z,151.13
2018-03-06T15:46:31.683Z,106.73
2018-03-06T15:48:59.258Z,124.40
2018-03-06T15:51:26.823Z,119.60
2018-03-06T15:53:54.420Z,105.43
2018-03-06T15:56:21.990Z,259.03
2018-03-06T15:58:49.572Z,242.50
2018-03-06T16:01:17.700Z,226.00
2018-03-06T16:03:45.263Z,177.03
2018-03-06T16:06:12.836Z,154.67
2018-03-06T16:08:40.434Z,157.63
2018-03-06T16:11:08.023Z,172.93
2018-03-06T16:13:35.590Z,195.20
2018-03-06T16:16:03.215Z,134.40
2018-03-06T16:18:30.776Z,105.87
2018-03-06T16:20:58.347Z,102.43
2018-03-06T16:23:25.944Z,112.20
2018-03-06T16:25:53.523Z,141.17
2018-03-06T16:28:21.095Z,138.67
2018-03-06T16:30:48.694Z,135.60
2018-03-06T16:33:16.254Z,139.03
2018-03-06T16:35:43.833Z,171.30
2018-03-06T16:38:11.458Z,140.50
2018-03-06T16:40:39.010Z,126.67
2018-03-06T16:43:06.598Z,150.70
2018-03-06T16:45:34.204Z,153.60
2018-03-06T16:48:01.807Z,211.93
2018-03-06T16:50:29.367Z,215.67
2018-03-06T16:52:56.993Z,169.47
2018-03-06T16:55:24.865Z,167.60
2018-03-06T16:57:52.428Z,144.93
2018-03-06T17:00:20.047Z,159.10
2018-03-06T17:02:47.612Z,155.80
2018-03-06T17:05:15.169Z,167.63
2018-03-06T17:07:42.775Z,331.67
2018-03-06T17:10:10.350Z,173.03
2018-03-06T17:12:37.908Z,141.53
2018-03-06T17:15:05.559Z,136.50
2018-03-06T17:17:33.114Z,152.40
2018-03-06T17:20:00.701Z,155.60
2018-03-06T17:22:28.254Z,145.97
2018-03-06T17:24:55.813Z,158.20
2018-03-06T17:27:23.427Z,185.00
2018-03-06T17:29:51.029Z,175.00
2018-03-06T17:32:18.599Z,141.60
2018-03-06T17:34:46.217Z,146.00
2018-03-06T17:37:13.781Z,158.63
2018-03-06T17:39:41.363Z,149.17
2018-03-06T17:42:09.158Z,126.83
2018-03-06T17:44:36.733Z,157.23
2018-03-06T17:47:04.310Z,147.33
2018-03-06T17:49:31.911Z,138.97
2018-03-06T17:51:59.514Z,152.73
2018-03-06T17:54:27.076Z,132.83
2018-03-06T17:56:54.675Z,144.67
2018-03-06T17:59:22.250Z,141.87
2018-03-06T18:01:49.812Z,135.37
2018-03-06T18:04:17.399Z,128.67
2018-03-06T18:06:44.966Z,118.07
2018-03-06T18:09:12.532Z,126.73
2018-03-06T18:11:40.138Z,136.17
2018-03-06T18:14:07.711Z,156.40
2018-03-06T18:16:35.305Z,147.37
2018-03-06T18:19:02.976Z,131.27
2018-03-06T18:21:30.588Z,130.83
2018-03-06T18:23:58.207Z,102.97
2018-03-06T18:26:26.134Z,105.23
2018-03-06T18:28:54.002Z,110.93
2018-03-06T18:31:21.743Z,116.67
2018-03-06T18:33:49.344Z,106.17
2018-03-06T18:36:16.904Z,108.00
2018-03-06T18:38:44.465Z,100.30
2018-03-06T18:41:12.093Z,114.93
2018-03-06T18:43:39.650Z,108.23
2018-03-06T18:46:07.208Z,125.20
2018-03-06T18:48:34.807Z,123.23
2018-03-06T18:51:09.224Z,111.03
2018-03-06T18:53:36.835Z,122.93
2018-03-06T18:56:04.418Z,145.60
2018-03-06T18:58:31.968Z,109.97
2018-03-06T19:04:28.173Z,103.33
2018-03-06T19:07:14.501Z,121.07
2018-03-06T19:09:42.076Z,112.70
2018-03-06T19:12:09.670Z,102.73
2018-03-06T19:14:37.342Z,116.13
2018-03-06T19:17:04.987Z,118.43
2018-03-06T19:19:32.580Z,109.17
2018-03-06T19:22:00.471Z,116.10
2018-03-06T19:24:28.198Z,125.90
2018-03-06T19:26:55.844Z,120.10
2018-03-06T19:29:23.791Z,138.03
2018-03-06T19:31:51.800Z,194.07
2018-03-06T19:34:20.490Z,133.00
2018-03-06T19:36:48.294Z,144.33
2018-03-06T19:39:16.011Z,127.10
2018-03-06T19:41:44.784Z,150.63
2018-03-06T19:44:12.717Z,169.47
2018-03-06T19:46:40.976Z,202.07
2018-03-06T19:49:09.017Z,168.23
2018-03-06T19:51:36.957Z,151.77
2018-03-06T19:54:05.048Z,175.90
2018-03-06T19:56:32.778Z,129.57
2018-03-06T19:59:00.902Z,103.97
2018-03-06T20:01:29.131Z,101.03
2018-03-06T20:03:57.670Z,97.97
2018-03-06T20:08:58.559Z,106.20
2018-03-06T20:11:26.617Z,123.03
2018-03-06T20:13:54.857Z,116.40
2018-03-06T20:16:22.660Z,122.17
2018-03-06T20:18:55.827Z,127.70
2018-03-06T20:21:23.379Z,107.20
2018-03-06T20:23:52.346Z,121.90
2018-03-06T20:26:19.967Z,120.97
2018-03-06T20:28:47.541Z,126.47
2018-03-06T20:31:20.806Z,120.57
2018-03-06T20:33:48.382Z,148.40
2018-03-06T20:36:15.951Z,161.20
2018-03-06T20:38:49.154Z,151.70
2018-03-06T20:41:16.719Z,146.70
2018-03-06T20:43:44.321Z,121.43
2018-03-06T20:46:17.451Z,121.93
2018-03-06T20:48:45.033Z,130.23
2018-03-06T20:51:12.598Z,154.50
2018-03-06T20:56:45.367Z,195.17
2018-03-06T20:59:12.964Z,171.90
2018-03-06T21:01:40.538Z,183.73
2018-03-06T21:04:08.115Z,154.30
2018-03-06T21:06:35.712Z,148.00
2018-03-06T21:09:03.359Z,166.83
2018-03-06T21:11:30.922Z,158.23
2018-03-06T21:13:58.528Z,167.03
2018-03-06T21:16:26.087Z,162.20
2018-03-06T21:18:53.648Z,179.10
2018-03-06T21:21:21.251Z,171.95
2018-03-06T21:23:48.830Z,160.43
2018-03-06T21:26:16.431Z,182.43
2018-03-06T21:28:44.092Z,156.63
2018-03-06T21:31:11.700Z,137.17
2018-03-06T21:33:39.275Z,139.43
2018-03-06T21:36:06.888Z,145.93
2018-03-06T21:38:34.534Z,152.73
2018-03-06T21:41:02.156Z,174.45
2018-03-06T21:43:29.776Z,160.87
2018-03-06T21:45:57.343Z,140.40
2018-03-06T21:48:24.917Z,153.38
2018-03-06T21:50:52.520Z,154.40
2018-03-06T21:53:20.092Z,144.07
2018-03-06T21:55:47.672Z,140.50
2018-03-06T21:58:15.350Z,141.23
2018-03-06T22:00:43.052Z,155.57
2018-03-06T22:03:10.768Z,144.03
2018-03-06T22:05:38.376Z,163.70
2018-03-06T22:08:05.951Z,151.20
2018-03-06T22:10:33.526Z,155.00
2018-03-06T22:13:01.119Z,151.23
2018-03-06T22:15:28.680Z,162.90
2018-03-06T22:17:56.232Z,157.47
2018-03-06T22:20:23.911Z,162.53
2018-03-06T22:22:51.478Z,167.80
2018-03-06T22:25:19.046Z,171.23
2018-03-06T22:27:46.736Z,217.93
2018-03-06T22:30:14.306Z,177.17
2018-03-06T22:32:41.867Z,183.67
2018-03-06T22:35:09.474Z,180.67
2018-03-06T22:37:37.033Z,152.43
2018-03-06T22:40:04.595Z,191.07
2018-03-06T22:42:32.202Z,192.80
2018-03-06T22:44:59.755Z,184.33
2018-03-06T22:47:27.370Z,178.77
2018-03-06T22:49:54.989Z,173.13
2018-03-06T22:52:22.615Z,187.03
2018-03-06T22:54:50.192Z,156.70
2018-03-06T22:57:17.799Z,168.63
2018-03-06T22:59:45.366Z,159.30
2018-03-06T23:02:13.042Z,314.33
2018-03-06T23:04:40.708Z,435.43
2018-03-06T23:07:08.274Z,302.42
2018-03-06T23:09:35.836Z,166.47
2018-03-06T23:12:03.628Z,175.95
2018-03-06T23:14:31.194Z,81.03
2018-03-06T23:16:58.775Z,206.00
2018-03-06T23:19:26.400Z,174.60
2018-03-06T23:21:54.074Z,158.63
2018-03-06T23:24:21.640Z,124.50
2018-03-06T23:26:49.260Z,123.13
2018-03-06T23:29:16.822Z,123.00
2018-03-06T23:31:44.382Z,123.77
2018-03-06T23:34:11.987Z,108.77
2018-03-06T23:36:39.546Z,53.00
2018-03-06T23:39:07.105Z,73.13
2018-03-06T23:41:34.696Z,95.03
2018-03-06T23:44:02.275Z,68.37
2018-03-06T23:46:29.837Z,64.73
2018-03-06T23:48:57.436Z,63.60
2018-03-06T23:51:25.007Z,72.97
2018-03-06T23:53:52.587Z,71.20
2018-03-06T23:56:20.244Z,108.60
2018-03-06T23:58:47.782Z,114.43
